createdAt,value
2022-12-04T00:01:24.878Z,9.00
2022-12-04T00:03:56.894Z,8.93
2022-12-04T00:06:24.950Z,9.43
2022-12-04T00:08:53.042Z,10.80
2022-12-04T00:11:26.352Z,9.15
2022-12-04T00:13:54.372Z,10.23
2022-12-04T00:16:25.034Z,9.98
2022-12-04T00:18:54.025Z,9.30
2022-12-04T00:21:22.867Z,9.68
2022-12-04T00:23:51.035Z,9.07
2022-12-04T00:26:24.472Z,9.13
2022-12-04T00:28:53.126Z,10.93
2022-12-04T00:31:24.626Z,9.70
2022-12-04T00:33:53.095Z,9.82
2022-12-04T00:36:23.407Z,9.50
2022-12-04T00:38:51.409Z,9.50
2022-12-04T00:41:22.275Z,8.68
2022-12-04T00:43:49.885Z,9.43
2022-12-04T00:46:17.833Z,10.05
2022-12-04T00:48:46.018Z,10.20
2022-12-04T00:51:19.253Z,9.30
2022-12-04T00:53:47.501Z,8.45
2022-12-04T00:56:21.102Z,9.45
2022-12-04T00:58:49.063Z,9.30
2022-12-04T01:01:19.758Z,8.88
2022-12-04T01:03:48.231Z,8.85
2022-12-04T01:06:26.994Z,8.57
2022-12-04T01:08:56.066Z,9.27
2022-12-04T01:11:25.675Z,8.98
2022-12-04T01:13:53.771Z,10.02
2022-12-04T01:16:31.623Z,9.20
2022-12-04T01:18:59.665Z,8.25
2022-12-04T01:21:27.327Z,9.88
2022-12-04T01:23:55.189Z,7.97
2022-12-04T01:26:22.832Z,8.55
2022-12-04T01:28:50.514Z,7.97
2022-12-04T01:31:20.467Z,8.98
2022-12-04T01:33:49.191Z,8.88
2022-12-04T01:36:19.621Z,8.38
2022-12-04T01:38:47.300Z,8.75
2022-12-04T01:41:17.247Z,8.45
2022-12-04T01:43:45.353Z,8.48
2022-12-04T01:46:13.244Z,7.72
2022-12-04T01:48:47.540Z,7.85
2022-12-04T01:51:19.706Z,7.68
2022-12-04T01:54:01.666Z,8.30
2022-12-04T01:56:44.210Z,7.72
2022-12-04T01:59:14.102Z,7.78
2022-12-04T02:01:47.842Z,8.18
2022-12-04T02:04:15.487Z,8.18
2022-12-04T02:06:43.731Z,8.93
2022-12-04T02:09:11.423Z,8.90
2022-12-04T02:11:52.142Z,7.82
2022-12-04T02:14:34.093Z,8.55
2022-12-04T02:17:28.712Z,8.45
2022-12-04T02:20:10.918Z,8.13
2022-12-04T02:23:15.344Z,7.75
2022-12-04T02:26:20.924Z,7.18
2022-12-04T02:28:55.149Z,7.25
2022-12-04T02:31:52.307Z,8.80
2022-12-04T02:34:29.304Z,8.13
2022-12-04T02:37:11.498Z,7.57
2022-12-04T02:39:45.414Z,7.55
2022-12-04T02:42:32.164Z,7.50
2022-12-04T02:45:07.383Z,8.15
2022-12-04T02:47:37.832Z,8.23
2022-12-04T02:50:10.285Z,8.32
2022-12-04T02:52:42.029Z,8.98
2022-12-04T02:55:17.485Z,7.75
2022-12-04T02:57:54.222Z,8.10
2022-12-04T03:00:23.305Z,7.75
2022-12-04T03:03:02.934Z,7.47
2022-12-04T03:05:41.081Z,8.13
2022-12-04T03:08:23.103Z,7.95
2022-12-04T03:10:57.448Z,6.28
2022-12-04T03:13:37.237Z,7.55
2022-12-04T03:16:34.729Z,8.20
2022-12-04T03:19:25.528Z,7.82
2022-12-04T03:21:59.149Z,9.00
2022-12-04T03:24:38.867Z,8.10
2022-12-04T03:27:28.438Z,8.45
2022-12-04T03:30:14.753Z,7.05
2022-12-04T03:33:08.983Z,8.25
2022-12-04T03:35:49.805Z,7.22
2022-12-04T03:38:17.457Z,7.40
2022-12-04T03:40:54.529Z,7.97
2022-12-04T03:43:30.361Z,7.95
2022-12-04T03:46:11.134Z,6.32
2022-12-04T03:48:56.930Z,7.15
2022-12-04T03:51:44.507Z,7.20
2022-12-04T03:54:21.003Z,6.85
2022-12-04T03:56:54.315Z,6.90
2022-12-04T03:59:30.425Z,7.07
2022-12-04T04:02:01.685Z,7.18
2022-12-04T04:04:36.216Z,7.32
2022-12-04T04:07:18.730Z,7.32
2022-12-04T04:09:51.590Z,7.80
2022-12-04T04:12:23.179Z,7.18
2022-12-04T04:15:22.309Z,6.80
2022-12-04T04:18:10.934Z,7.12
2022-12-04T04:21:01.830Z,7.03
2022-12-04T04:23:53.911Z,7.15
2022-12-04T04:26:24.049Z,7.85
2022-12-04T04:28:51.686Z,7.87
2022-12-04T04:31:25.365Z,7.78
2022-12-04T04:34:05.825Z,6.97
2022-12-04T04:36:57.649Z,6.93
2022-12-04T04:39:31.004Z,7.40
2022-12-04T04:42:05.835Z,7.93
2022-12-04T04:45:07.092Z,8.23
2022-12-04T04:47:43.582Z,6.87
2022-12-04T04:50:13.307Z,6.70
2022-12-04T04:52:45.409Z,6.30
2022-12-04T04:55:13.789Z,8.20
2022-12-04T04:57:41.525Z,8.63
2022-12-04T05:00:14.733Z,8.02
2022-12-04T05:02:42.903Z,7.47
2022-12-04T05:05:11.299Z,7.82
2022-12-04T05:07:38.972Z,8.55
2022-12-04T05:10:07.586Z,7.70
2022-12-04T05:12:35.349Z,7.40
2022-12-04T05:15:03.047Z,7.37
2022-12-04T05:17:30.694Z,7.07
2022-12-04T05:19:58.686Z,8.05
2022-12-04T05:22:35.196Z,7.22
2022-12-04T05:25:03.873Z,7.22
2022-12-04T05:27:32.315Z,8.38
2022-12-04T05:30:00.535Z,8.43
2022-12-04T05:32:29.974Z,7.03
2022-12-04T05:34:58.277Z,8.07
2022-12-04T05:37:26.482Z,6.68
2022-12-04T05:39:54.807Z,7.70
2022-12-04T05:42:23.000Z,7.30
2022-12-04T05:44:51.310Z,6.40
2022-12-04T05:47:19.087Z,6.95
2022-12-04T05:49:46.724Z,8.45
2022-12-04T05:52:15.159Z,7.50
2022-12-04T05:54:42.836Z,7.00
2022-12-04T05:57:10.536Z,6.93
2022-12-04T05:59:38.433Z,7.03
2022-12-04T06:02:06.136Z,7.20
2022-12-04T06:04:33.895Z,7.45
2022-12-04T06:07:01.560Z,6.70
2022-12-04T06:09:29.199Z,7.70
2022-12-04T06:11:59.463Z,6.28
2022-12-04T06:14:27.164Z,6.22
2022-12-04T06:16:55.075Z,6.90
2022-12-04T06:19:24.156Z,6.25
2022-12-04T06:21:54.075Z,7.12
2022-12-04T06:24:24.735Z,7.00
2022-12-04T06:27:27.387Z,6.82
2022-12-04T06:29:44.343Z,7.32
2022-12-04T06:32:16.334Z,6.40
2022-12-04T06:34:47.225Z,6.45
2022-12-04T06:37:14.839Z,7.03
2022-12-04T06:39:42.502Z,6.32
2022-12-04T06:42:10.083Z,7.37
2022-12-04T06:44:37.815Z,6.65
2022-12-04T06:47:06.359Z,7.55
2022-12-04T06:49:34.142Z,6.40
2022-12-04T06:52:02.081Z,7.20
2022-12-04T06:54:29.737Z,8.10
2022-12-04T06:56:57.475Z,6.50
2022-12-04T06:59:25.214Z,6.55
2022-12-04T07:01:52.935Z,6.65
2022-12-04T07:04:21.547Z,6.32
2022-12-04T07:06:49.580Z,6.78
2022-12-04T07:09:18.858Z,7.05
2022-12-04T07:11:46.922Z,8.77
2022-12-04T07:14:14.840Z,6.85
2022-12-04T07:16:43.762Z,7.25
2022-12-04T07:19:13.154Z,6.75
2022-12-04T07:21:41.126Z,7.57
2022-12-04T07:24:09.157Z,6.90
2022-12-04T07:26:36.819Z,7.00
2022-12-04T07:29:04.509Z,6.75
2022-12-04T07:31:32.340Z,7.40
2022-12-04T07:34:00.327Z,6.95
2022-12-04T07:36:28.726Z,7.72
2022-12-04T07:38:57.415Z,6.60
2022-12-04T07:41:25.694Z,6.75
2022-12-04T07:43:53.387Z,6.55
2022-12-04T07:46:25.048Z,6.60
2022-12-04T07:48:52.962Z,7.72
2022-12-04T07:51:23.412Z,6.00
2022-12-04T07:53:52.707Z,6.78
2022-12-04T07:56:20.940Z,8.48
2022-12-04T07:58:49.102Z,6.55
2022-12-04T08:01:19.500Z,7.12
2022-12-04T08:03:49.295Z,7.60
2022-12-04T08:06:23.249Z,7.28
2022-12-04T08:08:51.349Z,6.72
2022-12-04T08:11:23.333Z,6.87
2022-12-04T08:13:58.679Z,6.47
2022-12-04T08:16:28.042Z,7.43
2022-12-04T08:18:56.722Z,6.18
2022-12-04T08:21:27.083Z,6.03
2022-12-04T08:23:56.655Z,7.40
2022-12-04T08:26:26.627Z,6.90
2022-12-04T08:28:55.503Z,7.05
2022-12-04T08:31:26.571Z,6.62
2022-12-04T08:33:57.998Z,6.93
2022-12-04T08:36:26.269Z,7.50
2022-12-04T08:38:54.353Z,8.15
2022-12-04T08:41:24.649Z,7.37
2022-12-04T08:43:55.726Z,7.53
2022-12-04T08:46:25.896Z,7.35
2022-12-04T08:48:53.744Z,7.18
2022-12-04T08:51:25.797Z,6.80
2022-12-04T08:54:01.409Z,7.40
2022-12-04T08:56:31.059Z,6.70
2022-12-04T08:58:59.920Z,6.50
2022-12-04T09:01:29.226Z,7.03
2022-12-04T09:03:57.520Z,6.82
2022-12-04T09:06:25.738Z,6.18
2022-12-04T09:08:55.917Z,6.32
2022-12-04T09:11:26.257Z,6.93
2022-12-04T09:13:54.447Z,7.43
2022-12-04T09:16:24.670Z,6.55
2022-12-04T09:18:52.904Z,5.93
2022-12-04T09:21:22.700Z,6.37
2022-12-04T09:23:50.778Z,7.85
2022-12-04T09:26:33.070Z,6.72
2022-12-04T09:29:02.578Z,6.95
2022-12-04T09:31:31.216Z,6.70
2022-12-04T09:34:00.255Z,6.62
2022-12-04T09:36:28.682Z,6.28
2022-12-04T09:38:56.404Z,6.22
2022-12-04T09:41:51.413Z,6.72
2022-12-04T09:44:26.376Z,6.55
2022-12-04T09:47:01.852Z,7.03
2022-12-04T09:49:51.873Z,7.30
2022-12-04T09:52:42.434Z,7.78
2022-12-04T09:55:27.114Z,7.75
2022-12-04T09:58:02.170Z,7.55
2022-12-04T10:00:32.131Z,7.93
2022-12-04T10:03:06.892Z,8.52
2022-12-04T10:05:55.256Z,7.70
2022-12-04T10:08:33.005Z,7.12
2022-12-04T10:11:12.825Z,6.95
2022-12-04T10:13:50.982Z,8.27
2022-12-04T10:16:44.332Z,8.20
2022-12-04T10:19:33.584Z,7.68
2022-12-04T10:22:20.053Z,8.18
2022-12-04T10:25:00.302Z,8.45
2022-12-04T10:27:37.390Z,8.20
2022-12-04T10:30:30.603Z,8.35
2022-12-04T10:33:14.654Z,7.45
2022-12-04T10:35:46.032Z,8.50
2022-12-04T10:38:35.208Z,8.10
2022-12-04T10:41:15.048Z,8.32
2022-12-04T10:43:48.982Z,8.27
2022-12-04T10:46:22.743Z,8.90
2022-12-04T10:48:54.087Z,8.40
2022-12-04T10:51:23.951Z,7.62
2022-12-04T10:53:52.854Z,8.73
2022-12-04T10:56:27.364Z,9.25
2022-12-04T10:59:05.494Z,7.55
2022-12-04T11:01:36.500Z,8.00
2022-12-04T11:04:08.918Z,7.85
2022-12-04T11:06:37.196Z,8.13
2022-12-04T11:09:05.463Z,9.63
2022-12-04T11:11:36.835Z,8.10
2022-12-04T11:14:07.960Z,7.70
2022-12-04T11:16:41.446Z,7.47
2022-12-04T11:19:27.538Z,7.50
2022-12-04T11:21:58.241Z,7.85
2022-12-04T11:24:35.642Z,7.47
2022-12-04T11:27:05.048Z,8.77
2022-12-04T11:29:53.482Z,7.82
2022-12-04T11:32:26.281Z,8.75
2022-12-04T11:34:59.282Z,7.47
2022-12-04T11:37:31.675Z,8.50
2022-12-04T11:39:59.877Z,8.60
2022-12-04T11:42:30.990Z,8.38
2022-12-04T11:44:58.683Z,7.95
2022-12-04T11:47:29.595Z,8.38
2022-12-04T11:50:18.573Z,9.05
2022-12-04T11:52:52.371Z,8.80
2022-12-04T11:55:44.681Z,8.60
2022-12-04T11:58:52.288Z,8.15
2022-12-04T12:01:20.035Z,7.72
2022-12-04T12:03:59.866Z,8.25
2022-12-04T12:06:37.498Z,8.13
2022-12-04T12:09:13.147Z,8.23
2022-12-04T12:11:53.073Z,7.93
2022-12-04T12:14:33.407Z,7.80
2022-12-04T12:17:24.842Z,7.82
2022-12-04T12:20:25.968Z,7.37
2022-12-04T12:22:53.589Z,8.32
2022-12-04T12:25:33.380Z,7.28
2022-12-04T12:28:01.061Z,8.05
2022-12-04T12:30:33.925Z,8.25
2022-12-04T12:33:24.919Z,7.87
2022-12-04T12:35:52.529Z,7.65
2022-12-04T12:38:22.880Z,7.25
2022-12-04T12:40:59.852Z,7.32
2022-12-04T12:43:34.079Z,7.45
2022-12-04T12:46:19.322Z,6.87
2022-12-04T12:49:06.179Z,7.65
2022-12-04T12:52:08.273Z,7.22
2022-12-04T12:54:57.153Z,7.05
2022-12-04T12:57:34.980Z,7.72
2022-12-04T13:00:15.043Z,8.00
2022-12-04T13:03:01.160Z,7.32
2022-12-04T13:05:36.793Z,8.45
2022-12-04T13:08:07.932Z,8.13
2022-12-04T13:10:51.215Z,7.05
2022-12-04T13:13:25.031Z,7.12
2022-12-04T13:16:03.659Z,7.53
2022-12-04T13:18:39.171Z,7.75
2022-12-04T13:21:09.712Z,7.45
2022-12-04T13:23:56.075Z,6.07
2022-12-04T13:26:52.368Z,6.25
2022-12-04T13:29:40.005Z,7.57
2022-12-04T13:32:49.068Z,6.87
2022-12-04T13:35:48.879Z,6.78
2022-12-04T13:38:22.500Z,7.78
2022-12-04T13:41:16.687Z,7.15
2022-12-04T13:43:44.388Z,6.93
2022-12-04T13:46:24.265Z,7.12
2022-12-04T13:48:51.973Z,7.28
2022-12-04T13:51:35.203Z,6.90
2022-12-04T13:54:21.435Z,6.85
2022-12-04T13:56:52.749Z,6.90
2022-12-04T13:59:25.047Z,6.87
2022-12-04T14:02:00.334Z,7.68
2022-12-04T14:05:00.425Z,7.62
2022-12-04T14:07:30.051Z,7.30
2022-12-04T14:10:00.728Z,7.10
2022-12-04T14:12:39.995Z,8.25
2022-12-04T14:15:29.295Z,7.80
2022-12-04T14:18:17.489Z,7.87
2022-12-04T14:20:48.482Z,7.00
2022-12-04T14:23:27.620Z,6.30
2022-12-04T14:25:58.871Z,7.90
2022-12-04T14:28:29.895Z,6.82
2022-12-04T14:31:15.414Z,7.68
2022-12-04T14:33:46.506Z,6.72
2022-12-04T14:36:26.007Z,7.65
2022-12-04T14:39:21.790Z,7.12
2022-12-04T14:41:49.605Z,7.50
2022-12-04T14:44:30.132Z,7.60
2022-12-04T14:47:14.930Z,7.47
2022-12-04T14:49:55.069Z,8.00
2022-12-04T14:52:32.574Z,7.43
2022-12-04T14:55:18.927Z,7.10
2022-12-04T14:58:24.109Z,8.00
2022-12-04T15:00:53.983Z,7.60
2022-12-04T15:03:23.138Z,7.22
2022-12-04T15:05:52.553Z,7.07
2022-12-04T15:08:22.027Z,7.53
2022-12-04T15:11:10.302Z,7.47
2022-12-04T15:13:39.788Z,7.43
2022-12-04T15:16:16.671Z,8.50
2022-12-04T15:18:58.411Z,7.78
2022-12-04T15:21:37.587Z,7.60
2022-12-04T15:24:21.315Z,6.60
2022-12-04T15:26:51.043Z,7.25
2022-12-04T15:29:24.580Z,8.27
2022-12-04T15:31:57.815Z,8.27
2022-12-04T15:34:51.593Z,9.15
2022-12-04T15:37:29.511Z,8.50
2022-12-04T15:39:58.954Z,8.50
2022-12-04T15:42:29.658Z,8.50
2022-12-04T15:45:09.017Z,8.45
2022-12-04T15:47:50.729Z,9.50
2022-12-04T15:50:18.304Z,9.13
2022-12-04T15:53:29.153Z,7.80
2022-12-04T15:56:07.431Z,8.55
2022-12-04T15:58:40.626Z,7.68
2022-12-04T16:01:14.196Z,7.82
2022-12-04T16:03:44.851Z,7.78
2022-12-04T16:06:34.059Z,7.62
2022-12-04T16:09:23.428Z,6.72
2022-12-04T16:12:20.092Z,7.50
2022-12-04T16:14:47.862Z,8.20
2022-12-04T16:17:15.666Z,6.68
2022-12-04T16:19:43.944Z,6.62
2022-12-04T16:22:20.334Z,8.02
2022-12-04T16:24:48.332Z,7.18
2022-12-04T16:27:23.856Z,8.20
2022-12-04T16:29:52.304Z,8.07
2022-12-04T16:32:22.511Z,7.43
2022-12-04T16:34:50.347Z,8.82
2022-12-04T16:37:21.832Z,9.05
2022-12-04T16:39:49.914Z,7.45
2022-12-04T16:42:19.340Z,8.13
2022-12-04T16:44:47.285Z,8.02
2022-12-04T16:47:15.606Z,7.25
2022-12-04T16:49:44.822Z,6.80
2022-12-04T16:52:13.406Z,6.93
2022-12-04T16:54:41.919Z,7.00
2022-12-04T16:57:10.231Z,7.03
2022-12-04T16:59:38.327Z,7.72
2022-12-04T17:02:15.627Z,7.85
2022-12-04T17:04:43.496Z,9.88
2022-12-04T17:07:11.216Z,11.20
2022-12-04T17:09:38.941Z,7.28
2022-12-04T17:12:06.724Z,8.15
2022-12-04T17:14:34.623Z,8.05
2022-12-04T17:17:02.245Z,7.05
2022-12-04T17:19:30.096Z,7.12
2022-12-04T17:21:59.424Z,6.97
2022-12-04T17:24:27.115Z,6.22
2022-12-04T17:26:54.857Z,8.25
2022-12-04T17:29:22.542Z,8.38
2022-12-04T17:31:50.539Z,8.50
2022-12-04T17:34:18.247Z,7.50
2022-12-04T17:36:45.900Z,9.38
2022-12-04T17:39:14.666Z,7.60
2022-12-04T17:41:42.383Z,9.02
2022-12-04T17:44:10.082Z,7.12
2022-12-04T17:46:38.051Z,7.55
2022-12-04T17:49:07.400Z,7.97
2022-12-04T17:51:36.918Z,7.18
2022-12-04T17:54:05.351Z,7.07
2022-12-04T17:56:33.703Z,7.15
2022-12-04T17:59:01.475Z,8.23
2022-12-04T18:01:31.073Z,6.70
2022-12-04T18:04:01.034Z,7.15
2022-12-04T18:06:40.455Z,7.85
2022-12-04T18:09:10.895Z,7.28
2022-12-04T18:11:40.424Z,6.30
2022-12-04T18:14:12.531Z,6.87
2022-12-04T18:16:44.327Z,6.60
2022-12-04T18:19:13.340Z,7.15
2022-12-04T18:21:41.510Z,6.25
2022-12-04T18:24:10.003Z,6.95
2022-12-04T18:26:40.968Z,7.03
2022-12-04T18:29:09.870Z,7.90
2022-12-04T18:31:37.755Z,7.12
2022-12-04T18:34:09.754Z,7.22
2022-12-04T18:36:42.221Z,7.15
2022-12-04T18:39:14.509Z,6.82
2022-12-04T18:41:42.578Z,8.13
2022-12-04T18:44:10.449Z,7.15
2022-12-04T18:46:38.277Z,7.72
2022-12-04T18:49:06.492Z,7.55
2022-12-04T18:51:37.589Z,7.90
2022-12-04T18:54:08.127Z,7.28
2022-12-04T18:56:37.045Z,7.57
2022-12-04T18:59:14.156Z,7.15
2022-12-04T19:01:42.738Z,8.02
2022-12-04T19:04:12.419Z,8.07
2022-12-04T19:06:42.914Z,7.50
2022-12-04T19:09:14.094Z,7.30
2022-12-04T19:11:43.058Z,7.57
2022-12-04T19:14:20.710Z,7.90
2022-12-04T19:16:50.883Z,6.97
2022-12-04T19:19:18.903Z,7.85
2022-12-04T19:21:46.695Z,8.20
2022-12-04T19:24:15.156Z,7.62
2022-12-04T19:26:43.822Z,7.80
2022-12-04T19:29:14.785Z,7.97
2022-12-04T19:31:42.899Z,7.90
2022-12-04T19:34:10.784Z,8.98
2022-12-04T19:36:38.511Z,8.68
2022-12-04T19:39:08.091Z,8.27
2022-12-04T19:41:38.127Z,8.40
2022-12-04T19:44:26.395Z,7.55
2022-12-04T19:46:54.083Z,6.53
2022-12-04T19:49:21.869Z,7.65
2022-12-04T19:51:50.460Z,9.25
2022-12-04T19:54:19.006Z,8.63
2022-12-04T19:56:52.027Z,8.43
2022-12-04T19:59:21.404Z,7.90
2022-12-04T20:01:49.255Z,8.02
2022-12-04T20:04:17.075Z,8.18
2022-12-04T20:06:47.105Z,7.80
2022-12-04T20:09:20.189Z,7.93
2022-12-04T20:11:48.399Z,7.62
2022-12-04T20:14:16.103Z,8.30
2022-12-04T20:16:44.241Z,8.52
2022-12-04T20:19:15.783Z,8.30
2022-12-04T20:21:44.335Z,8.35
2022-12-04T20:24:15.349Z,7.90
2022-12-04T20:26:44.907Z,7.03
2022-12-04T20:29:15.153Z,7.12
2022-12-04T20:31:45.803Z,7.82
2022-12-04T20:34:17.278Z,7.78
2022-12-04T20:36:46.641Z,7.07
2022-12-04T20:39:16.283Z,6.70
2022-12-04T20:41:44.182Z,8.43
2022-12-04T20:44:15.304Z,7.32
2022-12-04T20:46:43.833Z,7.05
2022-12-04T20:49:21.264Z,7.75
2022-12-04T20:51:50.814Z,8.00
2022-12-04T20:54:20.600Z,7.60
2022-12-04T20:56:49.886Z,7.80
2022-12-04T20:59:19.779Z,7.35
2022-12-04T21:01:49.996Z,8.75
2022-12-04T21:04:19.037Z,7.03
2022-12-04T21:06:48.044Z,7.82
2022-12-04T21:09:18.827Z,7.82
2022-12-04T21:11:49.347Z,7.45
2022-12-04T21:14:40.809Z,6.05
2022-12-04T21:17:14.240Z,7.93
2022-12-04T21:19:42.029Z,6.12
2022-12-04T21:22:09.844Z,8.45
2022-12-04T21:24:39.305Z,7.15
2022-12-04T21:27:08.977Z,7.60
2022-12-04T21:29:40.012Z,6.75
2022-12-04T21:32:08.391Z,6.68
2022-12-04T21:34:36.440Z,6.85
2022-12-04T21:37:04.330Z,6.60
2022-12-04T21:39:32.074Z,6.78
2022-12-04T21:42:18.564Z,7.25
2022-12-04T21:44:46.333Z,5.50
2022-12-04T21:47:13.949Z,7.50
2022-12-04T21:49:41.836Z,5.78
2022-12-04T21:52:09.570Z,7.07
2022-12-04T21:54:37.296Z,7.15
2022-12-04T21:57:04.891Z,6.50
2022-12-04T21:59:32.641Z,7.00
2022-12-04T22:02:00.400Z,7.43
2022-12-04T22:04:28.344Z,7.12
2022-12-04T22:06:56.054Z,7.05
2022-12-04T22:09:23.785Z,7.07
2022-12-04T22:11:51.450Z,8.20
2022-12-04T22:14:19.139Z,9.10
2022-12-04T22:16:46.874Z,8.43
2022-12-04T22:19:14.740Z,6.62
2022-12-04T22:21:42.468Z,7.60
2022-12-04T22:24:11.613Z,6.80
2022-12-04T22:26:40.060Z,6.97
2022-12-04T22:29:34.216Z,7.30
2022-12-04T22:31:55.605Z,6.80
2022-12-04T22:34:23.396Z,7.87
2022-12-04T22:36:51.554Z,6.68
2022-12-04T22:39:19.314Z,6.97
2022-12-04T22:41:47.097Z,6.78
2022-12-04T22:44:14.692Z,6.60
2022-12-04T22:46:42.585Z,5.68
2022-12-04T22:49:10.321Z,7.05
2022-12-04T22:51:38.015Z,6.55
2022-12-04T22:54:07.433Z,6.22
2022-12-04T22:56:35.336Z,6.32
2022-12-04T22:59:02.978Z,6.55
2022-12-04T23:01:33.596Z,6.78
2022-12-04T23:04:03.368Z,6.85
2022-12-04T23:06:33.504Z,6.10
2022-12-04T23:09:07.024Z,6.22
2022-12-04T23:11:35.188Z,6.12
2022-12-04T23:14:06.563Z,5.62
2022-12-04T23:16:36.964Z,5.47
2022-12-04T23:19:05.532Z,6.25
2022-12-04T23:21:33.923Z,6.05
2022-12-04T23:24:01.757Z,6.12
2022-12-04T23:26:38.980Z,5.95
2022-12-04T23:29:29.704Z,5.90
2022-12-04T23:31:55.636Z,6.55
2022-12-04T23:34:23.426Z,6.30
2022-12-04T23:36:51.043Z,6.07
2022-12-04T23:39:18.648Z,5.90
2022-12-04T23:41:46.301Z,6.37
2022-12-04T23:44:13.939Z,6.15
2022-12-04T23:46:41.789Z,6.32
2022-12-04T23:49:09.686Z,5.97
2022-12-04T23:51:37.442Z,6.93
2022-12-04T23:54:05.221Z,7.07
2022-12-04T23:56:33.838Z,6.87
2022-12-04T23:59:01.664Z,6.95
